createdAt,value
2023-05-05T00:04:59.521Z,22.4
2023-05-05T00:10:50.638Z,22.3
2023-05-05T00:16:42.815Z,22.3
2023-05-05T00:22:35.621Z,22.2
2023-05-05T00:28:29.254Z,22.2
2023-05-05T00:34:22.232Z,22.1
2023-05-05T00:40:13.617Z,22.1
2023-05-05T00:46:04.725Z,22.1
2023-05-05T00:51:57.438Z,22
2023-05-05T00:57:49.495Z,21.9
2023-05-05T01:03:40.661Z,21.9
2023-05-05T01:09:32.550Z,21.9
2023-05-05T01:15:39.593Z,21.8
2023-05-05T01:21:31.173Z,21.8
2023-05-05T01:27:22.393Z,21.8
2023-05-05T01:33:14.353Z,21.8
2023-05-05T01:38:49.651Z,21.8
2023-05-05T01:44:41.628Z,21.7
2023-05-05T01:56:09.342Z,21.6
2023-05-05T02:02:01.547Z,21.6
2023-05-05T02:07:54.076Z,21.6
2023-05-05T02:13:45.639Z,21.5
2023-05-05T02:19:37.945Z,21.5
2023-05-05T02:25:29.762Z,21.4
2023-05-05T02:31:20.900Z,21.4
2023-05-05T02:37:13.054Z,21.4
2023-05-05T02:43:04.424Z,21.4
2023-05-05T02:48:55.499Z,21.4
2023-05-05T02:54:31.840Z,21.4
2023-05-05T03:00:08.003Z,21.3
2023-05-05T03:05:59.996Z,21.3
2023-05-05T03:17:28.475Z,21.3
2023-05-05T03:23:21.569Z,21.3
2023-05-05T03:29:14.113Z,21.2
2023-05-05T03:35:06.696Z,21.2
2023-05-05T03:58:02.350Z,21.1
2023-05-05T04:03:57.090Z,21.1
2023-05-05T04:09:48.307Z,21.1
2023-05-05T04:15:39.145Z,21
2023-05-05T04:21:30.882Z,21
2023-05-05T04:27:22.384Z,21
2023-05-05T04:32:58.044Z,20.9
2023-05-05T04:38:03.634Z,20.9
2023-05-05T04:43:25.635Z,20.9
2023-05-05T04:48:46.777Z,20.9
2023-05-05T04:54:23.241Z,20.9
2023-05-05T04:59:59.544Z,20.9
2023-05-05T05:05:36.285Z,20.9
2023-05-05T05:10:57.302Z,20.8
2023-05-05T05:16:02.855Z,20.8
2023-05-05T05:21:54.750Z,20.8
2023-05-05T05:27:15.285Z,20.8
2023-05-05T05:33:06.188Z,20.8
2023-05-05T05:44:17.680Z,20.7
2023-05-05T05:50:09.678Z,20.8
2023-05-05T05:55:30.646Z,20.8
2023-05-05T06:06:45.433Z,20.7
2023-05-05T06:12:36.857Z,20.7
2023-05-05T06:18:16.025Z,20.7
2023-05-05T06:23:52.272Z,20.6
2023-05-05T06:29:12.848Z,20.6
2023-05-05T06:34:33.939Z,20.6
2023-05-05T06:39:55.330Z,20.6
2023-05-05T06:45:16.122Z,20.6
2023-05-05T06:50:37.338Z,20.6
2023-05-05T06:55:43.268Z,20.6
2023-05-05T07:01:04.166Z,20.6
2023-05-05T07:06:25.716Z,20.6
2023-05-05T07:11:47.636Z,20.6
2023-05-05T07:17:21.563Z,20.6
2023-05-05T07:22:59.205Z,20.6
2023-05-05T07:28:20.644Z,20.6
2023-05-05T07:33:46.091Z,20.5
2023-05-05T07:39:22.361Z,20.6
2023-05-05T07:45:02.076Z,20.5
2023-05-05T07:50:39.424Z,20.5
2023-05-05T07:56:33.738Z,20.5
2023-05-05T08:02:11.538Z,20.5
2023-05-05T08:07:35.041Z,20.5
2023-05-05T08:13:11.935Z,20.5
2023-05-05T08:18:49.519Z,20.5
2023-05-05T08:24:38.244Z,20.4
2023-05-05T08:30:15.632Z,20.4
2023-05-05T08:35:52.435Z,20.4
2023-05-05T08:41:29.190Z,20.4
2023-05-05T08:47:25.179Z,20.4
2023-05-05T08:53:02.315Z,20.5
2023-05-05T08:58:23.956Z,20.5
2023-05-05T09:04:01.668Z,20.4
2023-05-05T09:09:23.055Z,20.4
2023-05-05T09:14:28.744Z,20.4
2023-05-05T09:19:34.210Z,20.4
2023-05-05T09:24:58.153Z,20.4
2023-05-05T09:30:19.118Z,20.4
2023-05-05T09:35:40.926Z,20.4
2023-05-05T09:41:03.130Z,20.4
2023-05-05T09:46:38.981Z,20.4
2023-05-05T09:52:32.910Z,20.4
2023-05-05T09:57:54.066Z,20.4
2023-05-05T10:03:15.718Z,20.4
2023-05-05T10:08:37.297Z,20.4
2023-05-05T10:14:14.357Z,20.4
2023-05-05T10:19:46.458Z,20.4
2023-05-05T10:25:08.328Z,20.4
2023-05-05T10:30:30.751Z,20.4
2023-05-05T10:36:45.192Z,20.4
2023-05-05T10:42:06.674Z,20.4
2023-05-05T10:47:28.094Z,20.4
2023-05-05T10:53:03.379Z,20.4
2023-05-05T10:58:55.958Z,20.4
2023-05-05T11:04:21.042Z,20.4
2023-05-05T11:09:27.263Z,20.4
2023-05-05T11:15:06.582Z,20.4
2023-05-05T11:20:28.569Z,20.4
2023-05-05T11:25:50.092Z,20.4
2023-05-05T11:31:14.987Z,20.4
2023-05-05T11:36:39.989Z,20.4
2023-05-05T11:42:03.868Z,20.4
2023-05-05T11:47:43.841Z,20.4
2023-05-05T11:53:05.855Z,20.4
2023-05-05T11:58:44.861Z,20.4
2023-05-05T12:03:52.313Z,20.4
2023-05-05T12:09:33.145Z,20.4
2023-05-05T12:15:11.496Z,20.4
2023-05-05T12:20:18.532Z,20.4
2023-05-05T12:26:10.351Z,20.4
2023-05-05T12:31:49.232Z,20.4
2023-05-05T12:37:10.985Z,20.4
2023-05-05T12:42:32.482Z,20.4
2023-05-05T12:47:54.770Z,20.4
2023-05-05T12:53:34.255Z,20.4
2023-05-05T12:59:26.991Z,20.4
2023-05-05T13:04:51.189Z,20.4
2023-05-05T13:10:44.370Z,20.4
2023-05-05T13:16:38.784Z,20.4
2023-05-05T13:22:31.962Z,20.5
2023-05-05T13:28:49.022Z,20.5
2023-05-05T13:34:27.838Z,20.5
2023-05-05T13:40:19.927Z,20.5
2023-05-05T13:46:05.849Z,20.6
2023-05-05T13:51:49.048Z,20.6
2023-05-05T13:57:43.995Z,20.6
2023-05-05T14:03:38.748Z,20.6
2023-05-05T14:09:34.844Z,20.6
2023-05-05T14:15:28.128Z,20.6
2023-05-05T14:21:05.872Z,20.7
2023-05-05T14:26:59.838Z,20.7
2023-05-05T14:32:53.502Z,20.8
2023-05-05T14:38:47.945Z,20.8
2023-05-05T14:44:41.067Z,20.8
2023-05-05T14:50:35.205Z,20.8
2023-05-05T14:56:39.485Z,20.9
2023-05-05T15:02:33.909Z,20.9
2023-05-05T15:08:30.408Z,20.9
2023-05-05T15:14:24.223Z,21
2023-05-05T15:20:03.203Z,21
2023-05-05T15:25:41.899Z,21.1
2023-05-05T15:31:20.174Z,21.1
2023-05-05T15:37:13.857Z,21.1
2023-05-05T15:43:08.603Z,21.1
2023-05-05T15:49:03.656Z,21.1
2023-05-05T15:54:45.707Z,21.1
2023-05-05T16:00:41.752Z,21.1
2023-05-05T16:06:22.144Z,21.1
2023-05-05T16:12:17.584Z,21.1
2023-05-05T16:18:14.187Z,21.1
2023-05-05T16:23:53.631Z,21
2023-05-05T16:29:34.250Z,21.1
2023-05-05T16:35:15.365Z,21
2023-05-05T16:40:56.007Z,21
2023-05-05T16:46:51.983Z,21
2023-05-05T16:52:48.306Z,20.9
2023-05-05T16:58:12.732Z,20.9
2023-05-05T17:03:38.502Z,20.9
2023-05-05T17:09:19.548Z,20.9
2023-05-05T17:15:01.416Z,20.9
2023-05-05T17:20:58.295Z,20.9
2023-05-05T17:26:58.514Z,20.9
2023-05-05T17:32:56.785Z,20.8
2023-05-05T17:38:55.129Z,20.8
2023-05-05T17:44:52.937Z,20.8
2023-05-05T17:50:52.063Z,20.8
2023-05-05T17:56:50.302Z,20.8
2023-05-05T18:02:49.553Z,20.8
2023-05-05T18:08:48.933Z,20.8
2023-05-05T18:14:48.273Z,20.8
2023-05-05T18:20:46.233Z,20.8
2023-05-05T18:26:58.101Z,20.8
2023-05-05T18:32:56.050Z,20.8
2023-05-05T18:38:56.411Z,20.8
2023-05-05T18:44:53.309Z,20.8
2023-05-05T18:50:54.905Z,20.8
2023-05-05T18:56:54.029Z,20.8
2023-05-05T19:02:52.350Z,20.8
2023-05-05T19:09:28.397Z,20.8
2023-05-05T19:15:27.347Z,20.8
2023-05-05T19:21:26.160Z,20.8
2023-05-05T19:27:26.498Z,20.8
2023-05-05T19:33:26.999Z,20.8
2023-05-05T19:39:26.025Z,20.8
2023-05-05T19:45:22.821Z,20.8
2023-05-05T19:51:22.337Z,20.8
2023-05-05T19:57:20.661Z,20.8
2023-05-05T20:03:19.423Z,20.8
2023-05-05T20:09:17.815Z,20.8
2023-05-05T20:15:17.155Z,20.8
2023-05-05T20:21:15.169Z,20.8
2023-05-05T20:27:14.542Z,20.8
2023-05-05T20:33:13.077Z,20.8
2023-05-05T20:39:10.835Z,20.8
2023-05-05T20:45:09.114Z,20.8
2023-05-05T20:51:12.363Z,20.8
2023-05-05T20:57:11.574Z,20.8
2023-05-05T21:03:11.538Z,20.8
2023-05-05T21:09:09.649Z,20.7
2023-05-05T21:15:07.354Z,20.8
2023-05-05T21:21:05.633Z,20.8
2023-05-05T21:27:03.613Z,20.7
2023-05-05T21:33:19.784Z,20.6
2023-05-05T21:39:17.265Z,20.7
2023-05-05T21:45:15.428Z,20.7
2023-05-05T21:51:12.064Z,20.7
2023-05-05T21:57:08.677Z,20.7
2023-05-05T22:08:43.919Z,20.7
2023-05-05T22:14:39.206Z,20.7
2023-05-05T22:20:40.924Z,20.7
2023-05-05T22:26:34.882Z,20.7
2023-05-05T22:32:31.219Z,20.6
2023-05-05T22:44:03.686Z,20.6
2023-05-05T22:49:42.783Z,20.6
2023-05-05T22:55:36.671Z,20.6
2023-05-05T23:01:30.554Z,20.6
2023-05-05T23:07:24.808Z,20.6
2023-05-05T23:13:17.923Z,20.6
2023-05-05T23:19:10.245Z,20.6
2023-05-05T23:25:11.616Z,20.6
2023-05-05T23:30:48.221Z,20.6
2023-05-05T23:36:24.722Z,20.6
2023-05-05T23:42:01.757Z,20.6
2023-05-05T23:47:38.839Z,20.6
2023-05-05T23:53:14.421Z,20.6
2023-05-05T23:58:51.573Z,20.6
